createdAt,value
2023-04-02T00:01:01.625Z,75.41
2023-04-02T00:03:42.544Z,75.43
2023-04-02T00:06:34.215Z,76.95
2023-04-02T00:09:21.314Z,77.44
2023-04-02T00:11:54.952Z,77.50
2023-04-02T00:14:36.616Z,77.58
2023-04-02T00:17:06.480Z,76.93
2023-04-02T00:19:49.941Z,76.91
2023-04-02T00:22:20.024Z,77.21
2023-04-02T00:24:49.883Z,77.19
2023-04-02T00:27:19.907Z,78.14
2023-04-02T00:29:58.477Z,77.94
2023-04-02T00:32:33.189Z,77.67
2023-04-02T00:35:00.983Z,77.60
2023-04-02T00:37:38.894Z,77.48
2023-04-02T00:40:16.883Z,77.47
2023-04-02T00:42:44.918Z,77.45
2023-04-02T00:45:23.673Z,77.35
2023-04-02T00:47:51.103Z,77.26
2023-04-02T00:50:20.667Z,76.86
2023-04-02T00:52:51.013Z,77.33
2023-04-02T00:55:25.002Z,77.48
2023-04-02T00:57:52.469Z,77.74
2023-04-02T01:00:32.281Z,77.55
2023-04-02T01:03:20.309Z,77.73
2023-04-02T01:05:50.660Z,77.51
2023-04-02T01:08:31.841Z,78.16
2023-04-02T01:11:29.171Z,77.68
2023-04-02T01:14:07.932Z,77.98
2023-04-02T01:16:42.354Z,78.10
2023-04-02T01:19:45.712Z,77.79
2023-04-02T01:22:21.902Z,77.62
2023-04-02T01:24:49.118Z,77.26
2023-04-02T01:27:28.783Z,77.10
2023-04-02T01:29:58.429Z,77.13
2023-04-02T01:32:30.151Z,77.24
2023-04-02T01:34:58.392Z,77.72
2023-04-02T01:37:57.201Z,77.92
2023-04-02T01:40:31.394Z,77.93
2023-04-02T01:43:09.872Z,77.44
2023-04-02T01:45:36.910Z,77.95
2023-04-02T01:48:17.071Z,78.13
2023-04-02T01:50:45.486Z,77.88
2023-04-02T01:53:17.170Z,78.69
2023-04-02T01:55:47.010Z,78.59
2023-04-02T01:58:17.297Z,78.63
2023-04-02T02:00:49.911Z,78.11
2023-04-02T02:03:20.843Z,78.64
2023-04-02T02:05:47.654Z,78.33
2023-04-02T02:08:32.626Z,78.46
2023-04-02T02:10:59.691Z,78.18
2023-04-02T02:13:26.410Z,78.55
2023-04-02T02:15:56.809Z,78.30
2023-04-02T02:18:23.962Z,77.86
2023-04-02T02:20:52.687Z,78.10
2023-04-02T02:23:21.392Z,78.11
2023-04-02T02:25:50.876Z,78.24
2023-04-02T02:28:27.293Z,78.00
2023-04-02T02:31:01.574Z,77.80
2023-04-02T02:33:34.839Z,77.44
2023-04-02T02:36:10.559Z,76.57
2023-04-02T02:38:43.578Z,76.55
2023-04-02T02:41:29.259Z,76.75
2023-04-02T02:44:07.491Z,77.23
2023-04-02T02:46:37.875Z,76.59
2023-04-02T02:49:06.205Z,77.08
2023-04-02T02:51:58.872Z,77.14
2023-04-02T02:54:27.358Z,76.55
2023-04-02T02:56:59.818Z,76.45
2023-04-02T02:59:29.697Z,77.19
2023-04-02T03:01:57.294Z,77.12
2023-04-02T03:04:25.165Z,77.66
2023-04-02T03:06:53.301Z,77.56
2023-04-02T03:09:33.938Z,78.11
2023-04-02T03:12:35.131Z,78.14
2023-04-02T03:15:37.383Z,78.52
2023-04-02T03:18:40.225Z,79.60
2023-04-02T03:21:25.410Z,79.53
2023-04-02T03:23:57.648Z,79.87
2023-04-02T03:26:39.887Z,79.54
2023-04-02T03:29:17.916Z,79.35
2023-04-02T03:31:48.713Z,79.65
2023-04-02T03:34:29.801Z,79.91
2023-04-02T03:37:08.130Z,79.82
2023-04-02T03:39:46.463Z,79.15
2023-04-02T03:42:21.673Z,78.78
2023-04-02T03:45:03.287Z,78.50
2023-04-02T03:47:36.459Z,78.42
2023-04-02T03:50:31.894Z,78.14
2023-04-02T03:53:00.383Z,78.13
2023-04-02T03:55:33.953Z,78.42
2023-04-02T03:58:27.149Z,79.04
2023-04-02T04:01:09.127Z,79.05
2023-04-02T04:03:49.811Z,78.89
2023-04-02T04:06:32.946Z,79.51
2023-04-02T04:09:15.672Z,78.93
2023-04-02T04:11:49.763Z,78.36
2023-04-02T04:14:35.274Z,78.55
2023-04-02T04:17:15.630Z,78.84
2023-04-02T04:19:45.533Z,79.18
2023-04-02T04:22:30.091Z,79.26
2023-04-02T04:25:05.938Z,79.16
2023-04-02T04:27:52.906Z,79.79
2023-04-02T04:30:34.971Z,78.98
2023-04-02T04:33:11.786Z,78.85
2023-04-02T04:38:27.590Z,76.81
2023-04-02T04:40:59.571Z,77.35
2023-04-02T04:43:46.438Z,76.65
2023-04-02T04:46:18.478Z,76.68
2023-04-02T04:49:03.190Z,76.77
2023-04-02T04:51:45.300Z,75.87
2023-04-02T04:54:16.377Z,75.75
2023-04-02T04:56:55.486Z,75.73
2023-04-02T04:59:52.719Z,75.87
2023-04-02T05:02:38.434Z,76.22
2023-04-02T05:05:18.814Z,75.93
2023-04-02T05:07:51.183Z,76.07
2023-04-02T05:10:41.552Z,75.87
2023-04-02T05:13:20.788Z,76.10
2023-04-02T05:16:12.368Z,76.85
2023-04-02T05:19:01.843Z,77.18
2023-04-02T05:22:24.342Z,77.31
2023-04-02T05:24:59.544Z,78.18
2023-04-02T05:27:41.983Z,77.61
2023-04-02T05:30:20.150Z,77.86
2023-04-02T05:32:53.681Z,77.15
2023-04-02T05:35:24.988Z,76.83
2023-04-02T05:37:52.456Z,76.83
2023-04-02T05:40:29.709Z,77.63
2023-04-02T05:42:58.538Z,77.70
2023-04-02T05:45:31.531Z,77.66
2023-04-02T05:48:02.198Z,78.55
2023-04-02T05:50:37.570Z,77.74
2023-04-02T05:53:17.901Z,77.90
2023-04-02T05:56:08.013Z,77.04
2023-04-02T05:58:55.809Z,77.75
2023-04-02T06:01:33.043Z,77.89
2023-04-02T06:04:19.098Z,78.56
2023-04-02T06:06:51.708Z,77.60
2023-04-02T06:09:37.938Z,77.96
2023-04-02T06:12:32.210Z,77.90
2023-04-02T06:14:59.081Z,77.64
2023-04-02T06:17:27.407Z,77.43
2023-04-02T06:19:56.308Z,77.97
2023-04-02T06:22:25.265Z,77.39
2023-04-02T06:25:00.103Z,77.14
2023-04-02T06:27:26.746Z,77.04
2023-04-02T06:29:59.911Z,76.99
2023-04-02T06:32:27.331Z,77.06
2023-04-02T06:34:54.447Z,76.97
2023-04-02T06:37:35.880Z,76.97
2023-04-02T06:40:05.755Z,76.32
2023-04-02T06:42:39.515Z,76.32
2023-04-02T06:45:14.484Z,74.99
2023-04-02T06:47:48.747Z,75.08
2023-04-02T06:50:31.019Z,75.11
2023-04-02T06:53:06.461Z,75.45
2023-04-02T06:55:55.211Z,75.34
2023-04-02T06:58:21.909Z,74.73
2023-04-02T07:00:50.754Z,74.39
2023-04-02T07:03:23.729Z,74.32
2023-04-02T07:05:50.524Z,74.73
2023-04-02T07:08:17.129Z,73.81
2023-04-02T07:10:44.029Z,73.94
2023-04-02T07:13:19.576Z,72.56
2023-04-02T07:15:49.198Z,71.56
2023-04-02T07:18:31.093Z,71.94
2023-04-02T07:20:58.179Z,71.14
2023-04-02T07:23:25.526Z,70.30
2023-04-02T07:25:54.977Z,69.72
2023-04-02T07:28:22.906Z,69.89
2023-04-02T07:30:50.993Z,69.50
2023-04-02T07:33:20.598Z,70.15
2023-04-02T07:35:47.915Z,70.56
2023-04-02T07:38:14.674Z,70.90
2023-04-02T07:40:41.458Z,71.33
2023-04-02T07:43:08.218Z,71.44
2023-04-02T07:45:35.029Z,71.67
2023-04-02T07:48:10.517Z,72.24
2023-04-02T07:50:37.308Z,72.46
2023-04-02T07:53:04.456Z,71.36
2023-04-02T07:55:31.398Z,71.01
2023-04-02T07:57:59.798Z,70.29
2023-04-02T08:00:28.444Z,69.39
2023-04-02T08:02:55.249Z,69.66
2023-04-02T08:05:22.620Z,69.79
2023-04-02T08:07:54.581Z,69.35
2023-04-02T08:10:21.460Z,68.98
2023-04-02T08:12:48.554Z,69.32
2023-04-02T08:15:19.173Z,68.50
2023-04-02T08:17:46.629Z,68.54
2023-04-02T08:20:18.830Z,68.00
2023-04-02T08:22:46.842Z,67.20
2023-04-02T08:25:14.101Z,66.89
2023-04-02T08:27:41.157Z,67.50
2023-04-02T08:30:09.795Z,67.49
2023-04-02T08:32:36.604Z,67.46
2023-04-02T08:35:03.384Z,67.48
2023-04-02T08:37:29.971Z,66.35
2023-04-02T08:39:56.597Z,66.76
2023-04-02T08:42:43.156Z,65.94
2023-04-02T08:45:47.517Z,66.23
2023-04-02T08:48:15.682Z,66.10
2023-04-02T08:50:44.585Z,66.33
2023-04-02T08:53:16.843Z,66.64
2023-04-02T08:56:06.250Z,65.64
2023-04-02T08:58:43.153Z,65.76
2023-04-02T09:01:54.255Z,64.47
2023-04-02T09:04:25.699Z,63.62
2023-04-02T09:06:55.104Z,63.23
2023-04-02T09:09:27.379Z,62.82
2023-04-02T09:12:04.158Z,63.18
2023-04-02T09:14:44.754Z,62.30
2023-04-02T09:17:21.874Z,62.77
2023-04-02T09:19:59.026Z,62.62
2023-04-02T09:22:31.856Z,62.16
2023-04-02T09:25:01.685Z,62.79
2023-04-02T09:27:31.513Z,62.54
2023-04-02T09:30:15.099Z,62.01
2023-04-02T09:32:52.935Z,61.43
2023-04-02T09:35:27.074Z,60.87
2023-04-02T09:38:30.760Z,60.68
2023-04-02T09:41:03.790Z,60.25
2023-04-02T09:43:31.928Z,59.62
2023-04-02T09:46:02.603Z,59.59
2023-04-02T09:48:40.938Z,59.13
2023-04-02T09:51:21.512Z,59.23
2023-04-02T09:54:04.524Z,58.54
2023-04-02T09:56:36.739Z,57.82
2023-04-02T09:59:03.432Z,57.69
2023-04-02T10:01:33.841Z,56.85
2023-04-02T10:04:03.819Z,56.41
2023-04-02T10:06:32.863Z,56.14
2023-04-02T10:09:21.426Z,56.10
2023-04-02T10:11:49.930Z,54.61
2023-04-02T10:14:28.765Z,54.19
2023-04-02T10:17:01.478Z,53.60
2023-04-02T10:19:42.532Z,53.20
2023-04-02T10:22:18.018Z,52.79
2023-04-02T10:24:44.720Z,50.99
2023-04-02T10:27:22.587Z,50.94
2023-04-02T10:30:22.988Z,51.51
2023-04-02T10:33:00.378Z,51.72
2023-04-02T10:35:42.046Z,50.99
2023-04-02T10:38:34.154Z,50.27
2023-04-02T10:41:13.099Z,51.39
2023-04-02T10:44:06.122Z,51.28
2023-04-02T10:46:54.537Z,50.30
2023-04-02T10:49:33.011Z,50.92
2023-04-02T10:52:24.279Z,50.90
2023-04-02T10:54:57.329Z,51.32
2023-04-02T10:57:40.709Z,51.00
2023-04-02T11:00:18.560Z,50.81
2023-04-02T11:02:54.622Z,51.46
2023-04-02T11:05:31.645Z,50.78
2023-04-02T11:08:04.327Z,51.30
2023-04-02T11:10:34.888Z,49.95
2023-04-02T11:13:32.731Z,49.50
2023-04-02T11:15:59.542Z,49.31
2023-04-02T11:18:36.779Z,48.93
2023-04-02T11:21:25.079Z,49.13
2023-04-02T11:23:59.990Z,48.75
2023-04-02T11:26:34.940Z,48.19
2023-04-02T11:29:08.302Z,48.48
2023-04-02T11:31:35.290Z,48.71
2023-04-02T11:34:01.891Z,48.09
2023-04-02T11:36:50.512Z,48.77
2023-04-02T11:39:56.818Z,48.53
2023-04-02T11:42:29.785Z,48.53
2023-04-02T11:45:01.429Z,48.52
2023-04-02T11:47:30.084Z,47.94
2023-04-02T11:49:58.857Z,48.16
2023-04-02T11:52:29.135Z,48.42
2023-04-02T11:54:58.912Z,48.57
2023-04-02T11:57:41.138Z,48.98
2023-04-02T12:00:27.384Z,49.42
2023-04-02T12:03:04.708Z,49.75
2023-04-02T12:05:50.969Z,49.91
2023-04-02T12:09:04.983Z,49.27
2023-04-02T12:11:37.869Z,50.26
2023-04-02T12:14:36.550Z,49.33
2023-04-02T12:17:07.755Z,49.62
2023-04-02T12:19:36.066Z,49.60
2023-04-02T12:22:02.938Z,49.45
2023-04-02T12:24:33.736Z,49.32
2023-04-02T12:27:20.052Z,48.98
2023-04-02T12:29:47.183Z,49.40
2023-04-02T12:32:30.845Z,49.05
2023-04-02T12:35:04.746Z,49.34
2023-04-02T12:37:31.713Z,49.58
2023-04-02T12:40:01.649Z,49.79
2023-04-02T12:42:38.008Z,49.91
2023-04-02T12:45:07.030Z,50.58
2023-04-02T12:47:33.842Z,50.60
2023-04-02T12:50:02.199Z,50.48
2023-04-02T12:52:29.405Z,50.38
2023-04-02T12:55:02.596Z,49.96
2023-04-02T12:57:29.258Z,49.85
2023-04-02T13:00:01.320Z,50.00
2023-04-02T13:02:31.021Z,49.12
2023-04-02T13:05:02.404Z,49.41
2023-04-02T13:07:32.319Z,50.48
2023-04-02T13:10:01.683Z,49.86
2023-04-02T13:12:36.576Z,50.24
2023-04-02T13:15:05.935Z,50.26
2023-04-02T13:17:43.846Z,50.29
2023-04-02T13:20:35.663Z,49.72
2023-04-02T13:23:27.624Z,49.20
2023-04-02T13:25:56.025Z,48.96
2023-04-02T13:28:22.925Z,49.67
2023-04-02T13:30:49.805Z,48.44
2023-04-02T13:33:20.313Z,48.89
2023-04-02T13:35:48.441Z,49.27
2023-04-02T13:38:15.161Z,48.55
2023-04-02T13:40:42.006Z,48.77
2023-04-02T13:43:19.691Z,48.17
2023-04-02T13:45:50.680Z,48.91
2023-04-02T13:48:21.457Z,48.48
2023-04-02T13:50:48.206Z,48.34
2023-04-02T13:53:31.199Z,48.35
2023-04-02T13:56:00.425Z,48.60
2023-04-02T13:58:31.749Z,49.14
2023-04-02T14:01:01.917Z,48.97
2023-04-02T14:03:28.705Z,48.67
2023-04-02T14:06:08.939Z,49.05
2023-04-02T14:08:47.918Z,50.16
2023-04-02T14:11:36.838Z,49.59
2023-04-02T14:14:45.704Z,49.50
2023-04-02T14:17:36.985Z,49.48
2023-04-02T14:20:23.091Z,49.93
2023-04-02T14:22:57.569Z,49.62
2023-04-02T14:25:30.242Z,50.28
2023-04-02T14:28:37.891Z,49.14
2023-04-02T14:31:15.576Z,49.74
2023-04-02T14:34:07.300Z,49.17
2023-04-02T14:36:46.188Z,49.27
2023-04-02T14:39:44.654Z,48.84
2023-04-02T14:42:17.453Z,49.19
2023-04-02T14:44:55.613Z,48.49
2023-04-02T14:47:31.272Z,48.46
2023-04-02T14:50:09.717Z,48.42
2023-04-02T14:52:42.562Z,48.76
2023-04-02T14:55:36.136Z,48.53
2023-04-02T14:58:08.111Z,48.77
2023-04-02T15:00:43.460Z,49.55
2023-04-02T15:03:14.403Z,49.37
2023-04-02T15:05:46.597Z,49.26
2023-04-02T15:08:35.323Z,50.02
2023-04-02T15:11:08.709Z,49.67
2023-04-02T15:13:42.372Z,50.96
2023-04-02T15:16:19.386Z,50.44
2023-04-02T15:18:46.701Z,50.93
2023-04-02T15:21:19.705Z,51.71
2023-04-02T15:24:10.469Z,50.86
2023-04-02T15:26:58.450Z,51.39
2023-04-02T15:29:51.419Z,51.76
2023-04-02T15:32:30.541Z,51.76
2023-04-02T15:35:37.396Z,51.62
2023-04-02T15:38:15.931Z,51.59
2023-04-02T15:41:04.430Z,51.63
2023-04-02T15:43:39.800Z,51.66
2023-04-02T15:46:19.117Z,52.08
2023-04-02T15:49:03.928Z,52.59
2023-04-02T15:51:55.016Z,53.08
2023-04-02T15:54:36.778Z,52.99
2023-04-02T15:57:30.238Z,52.83
2023-04-02T16:00:11.487Z,53.20
2023-04-02T16:02:58.505Z,52.26
2023-04-02T16:05:40.488Z,52.43
2023-04-02T16:08:09.216Z,52.25
2023-04-02T16:10:42.605Z,51.97
2023-04-02T16:13:37.864Z,51.94
2023-04-02T16:16:13.613Z,51.71
2023-04-02T16:19:01.439Z,51.79
2023-04-02T16:21:51.384Z,52.13
2023-04-02T16:24:18.110Z,53.29
2023-04-02T16:27:00.020Z,53.26
2023-04-02T16:30:04.356Z,53.77
2023-04-02T16:32:55.669Z,53.81
2023-04-02T16:35:54.454Z,54.14
2023-04-02T16:38:39.767Z,54.21
2023-04-02T16:41:11.984Z,54.25
2023-04-02T16:44:00.781Z,54.82
2023-04-02T16:47:04.378Z,54.78
2023-04-02T16:50:02.015Z,54.59
2023-04-02T16:53:00.791Z,55.01
2023-04-02T16:55:35.347Z,55.13
2023-04-02T16:58:26.386Z,56.09
2023-04-02T17:01:05.470Z,57.13
2023-04-02T17:03:50.973Z,57.69
2023-04-02T17:07:02.922Z,57.86
2023-04-02T17:09:49.302Z,58.60
2023-04-02T17:12:21.531Z,58.38
2023-04-02T17:14:57.567Z,58.00
2023-04-02T17:17:24.308Z,58.87
2023-04-02T17:19:56.054Z,58.28
2023-04-02T17:22:23.501Z,58.13
2023-04-02T17:25:03.167Z,58.32
2023-04-02T17:27:36.830Z,58.81
2023-04-02T17:30:13.291Z,58.75
2023-04-02T17:32:39.866Z,58.60
2023-04-02T17:35:18.502Z,58.62
2023-04-02T17:38:21.290Z,57.91
2023-04-02T17:41:00.674Z,57.67
2023-04-02T17:43:56.264Z,57.33
2023-04-02T17:46:29.881Z,57.02
2023-04-02T17:49:07.491Z,57.28
2023-04-02T17:52:04.021Z,57.00
2023-04-02T17:54:44.884Z,57.31
2023-04-02T17:57:30.287Z,57.29
2023-04-02T18:00:06.317Z,57.78
2023-04-02T18:03:04.013Z,58.11
2023-04-02T18:05:59.795Z,58.28
2023-04-02T18:08:39.971Z,58.49
2023-04-02T18:11:25.214Z,58.12
2023-04-02T18:14:14.973Z,58.00
2023-04-02T18:17:26.182Z,58.89
2023-04-02T18:19:52.761Z,58.67
2023-04-02T18:22:43.953Z,58.64
2023-04-02T18:25:34.713Z,58.17
2023-04-02T18:28:32.422Z,58.62
2023-04-02T18:31:13.254Z,58.45
2023-04-02T18:33:49.644Z,58.33
2023-04-02T18:36:26.565Z,58.15
2023-04-02T18:39:11.035Z,57.59
2023-04-02T18:41:43.980Z,57.91
2023-04-02T18:44:42.408Z,58.74
2023-04-02T18:47:37.832Z,58.20
2023-04-02T18:50:28.220Z,57.90
2023-04-02T18:52:57.783Z,57.91
2023-04-02T18:55:28.911Z,58.16
2023-04-02T18:58:12.958Z,57.94
2023-04-02T19:00:41.869Z,58.60
2023-04-02T19:03:14.981Z,58.48
2023-04-02T19:05:49.590Z,58.10
2023-04-02T19:08:28.211Z,57.27
2023-04-02T19:11:01.717Z,57.68
2023-04-02T19:13:28.465Z,57.67
2023-04-02T19:16:13.866Z,57.28
2023-04-02T19:19:21.422Z,57.76
2023-04-02T19:22:00.947Z,57.66
2023-04-02T19:24:54.310Z,57.26
2023-04-02T19:27:34.276Z,56.82
2023-04-02T19:30:19.086Z,56.26
2023-04-02T19:32:54.899Z,56.20
2023-04-02T19:35:21.955Z,55.51
2023-04-02T19:38:27.177Z,54.80
2023-04-02T19:41:07.140Z,55.25
2023-04-02T19:43:33.855Z,55.11
2023-04-02T19:46:02.519Z,54.37
2023-04-02T19:48:50.767Z,54.87
2023-04-02T19:51:17.442Z,54.94
2023-04-02T19:53:44.448Z,55.04
2023-04-02T19:56:11.058Z,55.39
2023-04-02T19:58:37.639Z,55.60
2023-04-02T20:01:04.320Z,55.76
2023-04-02T20:03:31.507Z,55.92
2023-04-02T20:06:00.863Z,56.24
2023-04-02T20:08:28.401Z,55.98
2023-04-02T20:10:56.146Z,56.40
2023-04-02T20:13:22.783Z,56.67
2023-04-02T20:15:51.406Z,57.46
2023-04-02T20:18:18.709Z,57.71
2023-04-02T20:20:48.253Z,58.38
2023-04-02T20:23:16.642Z,58.18
2023-04-02T20:25:47.847Z,58.58
2023-04-02T20:28:14.641Z,59.01
2023-04-02T20:30:41.330Z,58.87
2023-04-02T20:33:08.205Z,58.80
2023-04-02T20:35:35.424Z,59.42
2023-04-02T20:38:06.532Z,58.83
2023-04-02T20:40:36.046Z,58.56
2023-04-02T20:43:05.439Z,58.25
2023-04-02T20:45:32.343Z,58.45
2023-04-02T20:47:59.023Z,58.18
2023-04-02T20:50:25.762Z,58.09
2023-04-02T20:52:52.545Z,57.20
2023-04-02T20:55:19.298Z,56.68
2023-04-02T20:57:46.511Z,56.47
2023-04-02T21:00:13.736Z,56.51
2023-04-02T21:02:40.500Z,56.41
2023-04-02T21:05:07.662Z,56.45
2023-04-02T21:07:34.683Z,55.96
2023-04-02T21:10:01.822Z,56.20
2023-04-02T21:12:28.529Z,56.27
2023-04-02T21:15:01.069Z,56.83
2023-04-02T21:17:28.891Z,56.85
2023-04-02T21:19:56.857Z,56.92
2023-04-02T21:22:23.985Z,57.00
2023-04-02T21:24:50.815Z,57.45
2023-04-02T21:27:19.718Z,57.07
2023-04-02T21:29:46.299Z,57.04
2023-04-02T21:32:21.325Z,57.44
2023-04-02T21:34:48.587Z,57.45
2023-04-02T21:37:15.591Z,57.66
2023-04-02T21:39:42.466Z,57.62
2023-04-02T21:42:11.182Z,57.86
2023-04-02T21:44:37.864Z,57.92
2023-04-02T21:47:04.529Z,57.79
2023-04-02T21:49:31.210Z,58.05
2023-04-02T21:51:57.826Z,58.03
2023-04-02T21:54:24.420Z,57.86
2023-04-02T21:56:51.497Z,58.27
2023-04-02T21:59:18.370Z,58.17
2023-04-02T22:01:50.523Z,58.04
2023-04-02T22:04:27.138Z,58.50
2023-04-02T22:06:53.888Z,58.54
2023-04-02T22:09:23.499Z,58.57
2023-04-02T22:11:54.710Z,58.83
2023-04-02T22:14:21.997Z,58.58
2023-04-02T22:16:48.732Z,58.60
2023-04-02T22:19:16.680Z,59.27
2023-04-02T22:21:44.259Z,59.08
2023-04-02T22:24:16.134Z,58.76
2023-04-02T22:26:43.303Z,59.37
2023-04-02T22:29:10.409Z,59.18
2023-04-02T22:31:37.199Z,59.07
2023-04-02T22:34:05.696Z,59.23
2023-04-02T22:36:32.898Z,59.46
2023-04-02T22:39:00.621Z,59.61
2023-04-02T22:41:32.116Z,59.11
2023-04-02T22:44:00.670Z,59.46
2023-04-02T22:46:28.627Z,59.53
2023-04-02T22:48:55.900Z,59.66
2023-04-02T22:51:23.629Z,59.57
2023-04-02T22:53:52.974Z,59.86
2023-04-02T22:56:22.714Z,59.49
2023-04-02T22:58:49.436Z,59.88
2023-04-02T23:01:21.530Z,59.89
2023-04-02T23:03:48.316Z,59.67
2023-04-02T23:06:18.040Z,59.66
2023-04-02T23:08:45.294Z,59.71
2023-04-02T23:11:17.806Z,59.61
2023-04-02T23:13:46.818Z,60.02
2023-04-02T23:16:16.952Z,60.48
2023-04-02T23:18:47.310Z,60.84
2023-04-02T23:21:17.871Z,61.05
2023-04-02T23:23:45.468Z,61.40
2023-04-02T23:26:16.582Z,61.13
2023-04-02T23:28:43.883Z,61.59
2023-04-02T23:31:19.530Z,62.37
2023-04-02T23:33:46.323Z,62.71
2023-04-02T23:36:28.098Z,62.80
2023-04-02T23:38:57.183Z,62.65
2023-04-02T23:41:26.952Z,63.14
2023-04-02T23:43:55.460Z,63.19
2023-04-02T23:46:23.118Z,62.80
2023-04-02T23:48:50.882Z,62.67
2023-04-02T23:51:18.113Z,62.35
2023-04-02T23:53:44.854Z,62.45
2023-04-02T23:56:14.236Z,62.40
2023-04-02T23:58:41.058Z,62.49
